sensor_id;sensor_type;location;lat;lon;timestamp;pressure;altitude;pressure_sealevel;temperature;humidity
9189;BME280;34313;50.780;6.084;2022-09-29T00:00:49;97967.25;;;5.06;100.00
9189;BME280;34313;50.780;6.084;2022-09-29T00:03:15;97980.41;;;5.05;100.00
9189;BME280;34313;50.780;6.084;2022-09-29T00:05:49;97974.91;;;5.09;100.00
9189;BME280;34313;50.780;6.084;2022-09-29T00:08:15;97976.88;;;5.06;100.00
9189;BME280;34313;50.780;6.084;2022-09-29T00:10:41;97970.91;;;5.04;100.00
9189;BME280;34313;50.780;6.084;2022-09-29T00:13:06;97976.69;;;5.09;100.00
9189;BME280;34313;50.780;6.084;2022-09-29T00:15:32;97971.84;;;5.17;100.00
9189;BME280;34313;50.780;6.084;2022-09-29T00:17:57;97966.06;;;5.12;100.00
9189;BME280;34313;50.780;6.084;2022-09-29T00:20:22;97959.81;;;5.15;100.00
9189;BME280;34313;50.780;6.084;2022-09-29T00:22:49;97969.88;;;5.21;100.00
9189;BME280;34313;50.780;6.084;2022-09-29T00:25:15;97963.81;;;5.20;100.00
9189;BME280;34313;50.780;6.084;2022-09-29T00:27:40;97966.22;;;5.23;100.00
9189;BME280;34313;50.780;6.084;2022-09-29T00:30:06;97971.75;;;5.33;100.00
9189;BME280;34313;50.780;6.084;2022-09-29T00:32:31;97967.25;;;5.35;100.00
9189;BME280;34313;50.780;6.084;2022-09-29T00:34:57;97969.88;;;5.35;100.00
9189;BME280;34313;50.780;6.084;2022-09-29T00:37:22;97968.28;;;5.33;100.00
9189;BME280;34313;50.780;6.084;2022-09-29T00:39:47;97957.66;;;5.36;100.00
9189;BME280;34313;50.780;6.084;2022-09-29T00:42:17;97957.47;;;5.39;100.00
9189;BME280;34313;50.780;6.084;2022-09-29T00:47:23;97959.25;;;5.38;100.00
9189;BME280;34313;50.780;6.084;2022-09-29T00:49:57;97963.69;;;5.36;100.00
9189;BME280;34313;50.780;6.084;2022-09-29T00:52:33;97969.88;;;5.35;100.00
9189;BME280;34313;50.780;6.084;2022-09-29T00:55:06;97966.53;;;5.33;100.00
9189;BME280;34313;50.780;6.084;2022-09-29T00:57:39;97968.50;;;5.29;100.00
9189;BME280;34313;50.780;6.084;2022-09-29T01:00:08;97975.28;;;5.32;100.00
9189;BME280;34313;50.780;6.084;2022-09-29T01:02:39;97972.94;;;5.27;100.00
9189;BME280;34313;50.780;6.084;2022-09-29T01:05:09;97968.94;;;5.22;100.00
9189;BME280;34313;50.780;6.084;2022-09-29T01:07:36;97966.41;;;5.20;100.00
9189;BME280;34313;50.780;6.084;2022-09-29T01:10:03;97964.84;;;5.18;100.00
9189;BME280;34313;50.780;6.084;2022-09-29T01:12:29;97974.56;;;5.16;100.00
9189;BME280;34313;50.780;6.084;2022-09-29T01:14:55;97964.53;;;5.08;100.00
9189;BME280;34313;50.780;6.084;2022-09-29T01:17:21;97956.53;;;4.97;100.00
9189;BME280;34313;50.780;6.084;2022-09-29T01:22:22;97966.31;;;4.93;100.00
9189;BME280;34313;50.780;6.084;2022-09-29T01:25:01;97964.81;;;4.89;100.00
9189;BME280;34313;50.780;6.084;2022-09-29T01:30:59;97973.03;;;4.83;100.00
9189;BME280;34313;50.780;6.084;2022-09-29T01:39:34;97971.78;;;4.74;100.00
9189;BME280;34313;50.780;6.084;2022-09-29T01:42:53;97979.63;;;4.74;100.00
9189;BME280;34313;50.780;6.084;2022-09-29T01:45:35;97981.41;;;4.73;100.00
9189;BME280;34313;50.780;6.084;2022-09-29T01:48:07;97980.53;;;4.73;100.00
9189;BME280;34313;50.780;6.084;2022-09-29T01:50:41;97991.72;;;4.75;100.00
9189;BME280;34313;50.780;6.084;2022-09-29T01:53:12;97980.53;;;4.73;100.00
9189;BME280;34313;50.780;6.084;2022-09-29T01:55:48;97979.97;;;4.68;100.00
9189;BME280;34313;50.780;6.084;2022-09-29T01:58:19;97974.28;;;4.61;100.00
9189;BME280;34313;50.780;6.084;2022-09-29T02:00:50;97978.75;;;4.59;100.00
9189;BME280;34313;50.780;6.084;2022-09-29T02:03:18;97986.69;;;4.58;100.00
9189;BME280;34313;50.780;6.084;2022-09-29T02:05:53;97982.28;;;4.58;100.00
9189;BME280;34313;50.780;6.084;2022-09-29T02:08:27;97982.38;;;4.57;100.00
9189;BME280;34313;50.780;6.084;2022-09-29T02:11:03;97981.47;;;4.58;100.00
9189;BME280;34313;50.780;6.084;2022-09-29T02:13:33;97980.88;;;4.52;100.00
9189;BME280;34313;50.780;6.084;2022-09-29T02:16:00;97973.81;;;4.54;100.00
9189;BME280;34313;50.780;6.084;2022-09-29T02:18:32;97981.47;;;4.58;100.00
9189;BME280;34313;50.780;6.084;2022-09-29T02:21:00;97978.84;;;4.58;100.00
9189;BME280;34313;50.780;6.084;2022-09-29T02:23:25;97975.56;;;4.54;100.00
9189;BME280;34313;50.780;6.084;2022-09-29T02:25:51;97979.84;;;4.55;100.00
9189;BME280;34313;50.780;6.084;2022-09-29T02:28:19;97983.59;;;4.51;100.00
9189;BME280;34313;50.780;6.084;2022-09-29T02:30:44;97975.00;;;4.49;100.00
9189;BME280;34313;50.780;6.084;2022-09-29T02:33:21;97978.44;;;4.49;100.00
9189;BME280;34313;50.780;6.084;2022-09-29T02:36:11;97979.03;;;4.54;100.00
9189;BME280;34313;50.780;6.084;2022-09-29T02:41:45;97977.34;;;4.53;100.00
9189;BME280;34313;50.780;6.084;2022-09-29T02:45:06;97981.97;;;4.48;100.00
9189;BME280;34313;50.780;6.084;2022-09-29T02:52:56;97974.81;;;4.52;100.00
9189;BME280;34313;50.780;6.084;2022-09-29T02:58:28;97961.84;;;4.50;100.00
9189;BME280;34313;50.780;6.084;2022-09-29T03:00:57;97970.63;;;4.49;100.00
9189;BME280;34313;50.780;6.084;2022-09-29T03:03:23;97972.88;;;4.55;100.00
9189;BME280;34313;50.780;6.084;2022-09-29T03:05:49;97974.56;;;4.57;100.00
9189;BME280;34313;50.780;6.084;2022-09-29T03:08:15;97976.25;;;4.58;100.00
9189;BME280;34313;50.780;6.084;2022-09-29T03:10:40;97973.72;;;4.56;100.00
9189;BME280;34313;50.780;6.084;2022-09-29T03:13:06;97964.94;;;4.57;100.00
9189;BME280;34313;50.780;6.084;2022-09-29T03:15:31;97975.38;;;4.57;100.00
9189;BME280;34313;50.780;6.084;2022-09-29T03:17:57;97969.69;;;4.50;100.00
9189;BME280;34313;50.780;6.084;2022-09-29T03:20:22;97968.19;;;4.46;100.00
9189;BME280;34313;50.780;6.084;2022-09-29T03:22:48;97972.50;;;4.47;100.00
9189;BME280;34313;50.780;6.084;2022-09-29T03:25:13;97974.34;;;4.45;100.00
9189;BME280;34313;50.780;6.084;2022-09-29T03:27:39;97963.22;;;4.42;100.00
9189;BME280;34313;50.780;6.084;2022-09-29T03:30:05;97963.06;;;4.45;100.00
9189;BME280;34313;50.780;6.084;2022-09-29T03:32:30;97964.84;;;4.44;100.00
9189;BME280;34313;50.780;6.084;2022-09-29T03:34:56;97964.84;;;4.44;100.00
9189;BME280;34313;50.780;6.084;2022-09-29T03:37:21;97971.91;;;4.42;100.00
9189;BME280;34313;50.780;6.084;2022-09-29T03:39:47;97973.94;;;4.37;100.00
9189;BME280;34313;50.780;6.084;2022-09-29T03:42:12;97966.13;;;4.37;100.00
9189;BME280;34313;50.780;6.084;2022-09-29T03:44:37;97962.75;;;4.35;100.00
9189;BME280;34313;50.780;6.084;2022-09-29T03:47:03;97967.13;;;4.34;100.00
9189;BME280;34313;50.780;6.084;2022-09-29T03:49:28;97953.41;;;4.31;100.00
9189;BME280;34313;50.780;6.084;2022-09-29T03:51:54;97976.72;;;4.34;100.00
9189;BME280;34313;50.780;6.084;2022-09-29T03:54:19;97968.97;;;4.32;100.00
9189;BME280;34313;50.780;6.084;2022-09-29T03:56:44;97983.63;;;4.35;100.00
9189;BME280;34313;50.780;6.084;2022-09-29T03:59:10;97977.84;;;4.30;100.00
9189;BME280;34313;50.780;6.084;2022-09-29T04:01:36;97978.00;;;4.27;100.00
9189;BME280;34313;50.780;6.084;2022-09-29T04:04:02;97986.56;;;4.29;100.00
9189;BME280;34313;50.780;6.084;2022-09-29T04:06:28;97979.78;;;4.26;100.00
9189;BME280;34313;50.780;6.084;2022-09-29T04:08:53;97985.66;;;4.30;100.00
9189;BME280;34313;50.780;6.084;2022-09-29T04:11:19;97982.38;;;4.26;100.00
9189;BME280;34313;50.780;6.084;2022-09-29T04:13:44;97992.16;;;4.23;100.00
9189;BME280;34313;50.780;6.084;2022-09-29T04:16:09;97988.31;;;4.14;100.00
9189;BME280;34313;50.780;6.084;2022-09-29T04:18:35;97993.22;;;4.19;100.00
9189;BME280;34313;50.780;6.084;2022-09-29T04:21:05;97993.16;;;4.20;100.00
9189;BME280;34313;50.780;6.084;2022-09-29T04:23:31;97990.63;;;4.19;100.00
9189;BME280;34313;50.780;6.084;2022-09-29T04:25:57;98000.16;;;4.20;100.00
9189;BME280;34313;50.780;6.084;2022-09-29T04:28:23;98000.31;;;4.16;100.00
9189;BME280;34313;50.780;6.084;2022-09-29T04:30:49;98005.28;;;4.21;100.00
9189;BME280;34313;50.780;6.084;2022-09-29T04:33:14;98004.31;;;4.22;100.00
9189;BME280;34313;50.780;6.084;2022-09-29T04:35:40;98004.31;;;4.22;100.00
9189;BME280;34313;50.780;6.084;2022-09-29T04:38:05;98006.94;;;4.22;100.00
9189;BME280;34313;50.780;6.084;2022-09-29T04:40:33;97999.03;;;4.24;100.00
9189;BME280;34313;50.780;6.084;2022-09-29T04:42:58;98002.38;;;4.26;100.00
9189;BME280;34313;50.780;6.084;2022-09-29T04:45:23;97997.44;;;4.21;100.00
9189;BME280;34313;50.780;6.084;2022-09-29T04:47:49;97999.13;;;4.22;100.00
9189;BME280;34313;50.780;6.084;2022-09-29T04:50:14;98004.31;;;4.22;100.00
9189;BME280;34313;50.780;6.084;2022-09-29T04:52:43;98007.97;;;4.20;100.00
9189;BME280;34313;50.780;6.084;2022-09-29T04:55:09;98006.56;;;4.14;100.00
9189;BME280;34313;50.780;6.084;2022-09-29T04:57:39;98010.31;;;4.08;100.00
9189;BME280;34313;50.780;6.084;2022-09-29T05:00:05;98011.19;;;4.09;100.00
9189;BME280;34313;50.780;6.084;2022-09-29T05:02:33;98008.56;;;4.09;100.00
9189;BME280;34313;50.780;6.084;2022-09-29T05:04:58;98015.94;;;4.16;100.00
9189;BME280;34313;50.780;6.084;2022-09-29T05:07:23;98014.44;;;4.12;100.00
9189;BME280;34313;50.780;6.084;2022-09-29T05:09:49;98015.19;;;4.14;100.00
9189;BME280;34313;50.780;6.084;2022-09-29T05:12:14;98024.81;;;4.14;100.00
9189;BME280;34313;50.780;6.084;2022-09-29T05:14:40;98018.41;;;4.04;100.00
9189;BME280;34313;50.780;6.084;2022-09-29T05:17:05;98034.88;;;4.04;100.00
9189;BME280;34313;50.780;6.084;2022-09-29T05:19:30;98030.69;;;4.02;100.00
9189;BME280;34313;50.780;6.084;2022-09-29T05:22:00;98030.69;;;4.02;100.00
9189;BME280;34313;50.780;6.084;2022-09-29T05:24:26;98038.41;;;4.03;100.00
9189;BME280;34313;50.780;6.084;2022-09-29T05:26:51;98033.91;;;4.07;100.00
9189;BME280;34313;50.780;6.084;2022-09-29T05:29:17;98041.44;;;4.11;100.00
9189;BME280;34313;50.780;6.084;2022-09-29T05:31:42;98033.78;;;4.08;100.00
9189;BME280;34313;50.780;6.084;2022-09-29T05:34:08;98038.25;;;4.06;100.00
9189;BME280;34313;50.780;6.084;2022-09-29T05:36:33;98041.78;;;4.05;100.00
9189;BME280;34313;50.780;6.084;2022-09-29T05:38:59;98037.34;;;4.07;100.00
9189;BME280;34313;50.780;6.084;2022-09-29T05:41:24;98041.28;;;4.14;100.00
9189;BME280;34313;50.780;6.084;2022-09-29T05:43:50;98040.16;;;4.19;100.00
9189;BME280;34313;50.780;6.084;2022-09-29T05:46:17;98038.81;;;4.27;100.00
9189;BME280;34313;50.780;6.084;2022-09-29T05:48:44;98038.72;;;4.29;100.00
9189;BME280;34313;50.780;6.084;2022-09-29T05:51:12;98040.06;;;4.36;100.00
9189;BME280;34313;50.780;6.084;2022-09-29T05:53:38;98046.63;;;4.43;100.00
9189;BME280;34313;50.780;6.084;2022-09-29T05:56:08;98046.28;;;4.49;100.00
9189;BME280;34313;50.780;6.084;2022-09-29T05:58:35;98056.03;;;4.62;100.00
9189;BME280;34313;50.780;6.084;2022-09-29T06:01:09;98059.72;;;4.73;100.00
9189;BME280;34313;50.780;6.084;2022-09-29T06:03:36;98050.59;;;4.81;100.00
9189;BME280;34313;50.780;6.084;2022-09-29T06:06:11;98057.63;;;4.95;100.00
9189;BME280;34313;50.780;6.084;2022-09-29T06:08:37;98048.50;;;5.02;100.00
9189;BME280;34313;50.780;6.084;2022-09-29T06:11:14;98066.53;;;5.21;100.00
9189;BME280;34313;50.780;6.084;2022-09-29T06:13:41;98068.50;;;5.32;100.00
9189;BME280;34313;50.780;6.084;2022-09-29T06:16:08;98069.72;;;5.40;100.00
9189;BME280;34313;50.780;6.084;2022-09-29T06:18:34;98072.59;;;5.50;100.00
9189;BME280;34313;50.780;6.084;2022-09-29T06:21:02;98064.41;;;5.56;100.00
9189;BME280;34313;50.780;6.084;2022-09-29T06:23:28;98076.63;;;5.70;100.00
9189;BME280;34313;50.780;6.084;2022-09-29T06:26:01;98070.00;;;5.79;100.00
9189;BME280;34313;50.780;6.084;2022-09-29T06:28:27;98075.88;;;5.82;100.00
9189;BME280;34313;50.780;6.084;2022-09-29T06:31:00;98080.63;;;5.90;100.00
9189;BME280;34313;50.780;6.084;2022-09-29T06:33:28;98068.97;;;5.96;100.00
9189;BME280;34313;50.780;6.084;2022-09-29T06:35:53;98083.25;;;6.04;100.00
9189;BME280;34313;50.780;6.084;2022-09-29T06:38:38;98073.34;;;6.10;100.00
9189;BME280;34313;50.780;6.084;2022-09-29T06:41:03;98076.41;;;6.16;100.00
9189;BME280;34313;50.780;6.084;2022-09-29T06:43:29;98083.25;;;6.19;100.00
9189;BME280;34313;50.780;6.084;2022-09-29T06:45:54;98076.78;;;6.24;100.00
9189;BME280;34313;50.780;6.084;2022-09-29T06:48:20;98090.75;;;6.38;100.00
9189;BME280;34313;50.780;6.084;2022-09-29T06:50:46;98092.56;;;6.50;100.00
9189;BME280;34313;50.780;6.084;2022-09-29T06:53:12;98093.56;;;6.62;100.00
9189;BME280;34313;50.780;6.084;2022-09-29T06:55:38;98094.94;;;6.68;100.00
9189;BME280;34313;50.780;6.084;2022-09-29T06:58:04;98093.38;;;6.65;100.00
9189;BME280;34313;50.780;6.084;2022-09-29T07:00:29;98103.16;;;6.76;100.00
9189;BME280;34313;50.780;6.084;2022-09-29T07:02:55;98092.31;;;6.68;100.00
9189;BME280;34313;50.780;6.084;2022-09-29T07:05:20;98103.97;;;6.76;100.00
9189;BME280;34313;50.780;6.084;2022-09-29T07:07:49;98090.16;;;6.74;100.00
9189;BME280;34313;50.780;6.084;2022-09-29T07:10:14;98096.75;;;6.80;100.00
9189;BME280;34313;50.780;6.084;2022-09-29T07:12:40;98103.31;;;7.00;100.00
9189;BME280;34313;50.780;6.084;2022-09-29T07:15:06;98107.66;;;7.14;100.00
9189;BME280;34313;50.780;6.084;2022-09-29T07:17:31;98093.63;;;7.28;100.00
9189;BME280;34313;50.780;6.084;2022-09-29T07:19:57;98094.88;;;7.61;100.00
9189;BME280;34313;50.780;6.084;2022-09-29T07:22:23;98076.78;;;8.07;100.00
9189;BME280;34313;50.780;6.084;2022-09-29T07:24:48;98103.28;;;8.65;100.00
9189;BME280;34313;50.780;6.084;2022-09-29T07:27:15;98075.03;;;9.74;100.00
9189;BME280;34313;50.780;6.084;2022-09-29T07:29:51;98087.25;;;11.80;100.00
9189;BME280;34313;50.780;6.084;2022-09-29T07:32:18;98089.00;;;13.78;95.71
9189;BME280;34313;50.780;6.084;2022-09-29T07:34:43;98092.09;;;15.28;87.35
9189;BME280;34313;50.780;6.084;2022-09-29T07:37:10;98073.84;;;15.96;71.35
9189;BME280;34313;50.780;6.084;2022-09-29T07:39:35;98087.47;;;16.43;60.76
9189;BME280;34313;50.780;6.084;2022-09-29T07:42:01;98097.44;;;17.42;53.39
9189;BME280;34313;50.780;6.084;2022-09-29T07:44:27;98097.22;;;18.40;50.72
9189;BME280;34313;50.780;6.084;2022-09-29T07:46:54;98096.66;;;18.84;47.42
9189;BME280;34313;50.780;6.084;2022-09-29T07:49:19;98098.13;;;18.95;45.99
9189;BME280;34313;50.780;6.084;2022-09-29T07:51:45;98095.41;;;18.41;46.94
9189;BME280;34313;50.780;6.084;2022-09-29T07:54:10;98085.97;;;18.22;46.46
9189;BME280;34313;50.780;6.084;2022-09-29T07:56:36;98094.38;;;19.04;44.96
9189;BME280;34313;50.780;6.084;2022-09-29T07:59:01;98102.72;;;20.00;43.53
9189;BME280;34313;50.780;6.084;2022-09-29T08:01:28;98100.13;;;20.88;42.69
9189;BME280;34313;50.780;6.084;2022-09-29T08:03:54;98112.13;;;21.36;40.52
9189;BME280;34313;50.780;6.084;2022-09-29T08:06:21;98109.00;;;21.53;39.56
9189;BME280;34313;50.780;6.084;2022-09-29T08:08:47;98118.88;;;21.75;38.68
9189;BME280;34313;50.780;6.084;2022-09-29T08:11:14;98107.78;;;21.56;38.68
9189;BME280;34313;50.780;6.084;2022-09-29T08:13:40;98124.09;;;21.83;37.75
9189;BME280;34313;50.780;6.084;2022-09-29T08:16:07;98114.75;;;21.29;38.32
9189;BME280;34313;50.780;6.084;2022-09-29T08:18:35;98116.06;;;21.89;37.48
9189;BME280;34313;50.780;6.084;2022-09-29T08:21:01;98116.88;;;22.53;37.40
9189;BME280;34313;50.780;6.084;2022-09-29T08:23:26;98109.38;;;22.35;35.88
9189;BME280;34313;50.780;6.084;2022-09-29T08:26:00;98119.72;;;21.53;36.79
9189;BME280;34313;50.780;6.084;2022-09-29T08:28:27;98117.03;;;21.10;37.59
9189;BME280;34313;50.780;6.084;2022-09-29T08:30:55;98115.25;;;21.61;37.31
9189;BME280;34313;50.780;6.084;2022-09-29T08:33:20;98116.50;;;21.65;36.92
9189;BME280;34313;50.780;6.084;2022-09-29T08:35:45;98121.84;;;21.86;35.95
9189;BME280;34313;50.780;6.084;2022-09-29T08:38:11;98136.63;;;21.76;36.21
9189;BME280;34313;50.780;6.084;2022-09-29T08:40:37;98138.69;;;22.08;35.65
9189;BME280;34313;50.780;6.084;2022-09-29T08:43:13;98128.78;;;22.44;35.00
9189;BME280;34313;50.780;6.084;2022-09-29T08:45:44;98132.22;;;22.66;34.58
9189;BME280;34313;50.780;6.084;2022-09-29T08:48:23;98134.09;;;22.79;33.24
9189;BME280;34313;50.780;6.084;2022-09-29T08:50:58;98146.91;;;22.28;34.05
9189;BME280;34313;50.780;6.084;2022-09-29T08:53:28;98137.50;;;21.83;34.65
9189;BME280;34313;50.780;6.084;2022-09-29T08:56:02;98145.38;;;21.41;35.14
9189;BME280;34313;50.780;6.084;2022-09-29T08:58:29;98150.22;;;20.73;36.05
9189;BME280;34313;50.780;6.084;2022-09-29T09:12:10;98160.31;;;19.04;39.65
9189;BME280;34313;50.780;6.084;2022-09-29T09:22:55;98157.66;;;18.56;41.40
9189;BME280;34313;50.780;6.084;2022-09-29T09:25:30;98153.81;;;18.19;41.61
9189;BME280;34313;50.780;6.084;2022-09-29T09:28:26;98161.16;;;18.09;42.20
9189;BME280;34313;50.780;6.084;2022-09-29T09:36:22;98150.19;;;17.95;41.91
9189;BME280;34313;50.780;6.084;2022-09-29T09:38:52;98152.94;;;18.66;41.41
9189;BME280;34313;50.780;6.084;2022-09-29T09:41:22;98147.81;;;18.96;39.62
9189;BME280;34313;50.780;6.084;2022-09-29T09:43:52;98148.56;;;19.36;38.36
9189;BME280;34313;50.780;6.084;2022-09-29T09:46:31;98160.78;;;19.07;39.03
9189;BME280;34313;50.780;6.084;2022-09-29T09:49:06;98156.84;;;18.56;40.33
9189;BME280;34313;50.780;6.084;2022-09-29T09:51:52;98154.34;;;17.98;41.04
9189;BME280;34313;50.780;6.084;2022-09-29T09:54:52;98153.06;;;17.45;42.06
9189;BME280;34313;50.780;6.084;2022-09-29T09:57:49;98152.03;;;17.29;42.69
9189;BME280;34313;50.780;6.084;2022-09-29T10:00:22;98143.88;;;17.06;43.57
9189;BME280;34313;50.780;6.084;2022-09-29T10:02:51;98150.56;;;16.76;44.36
9189;BME280;34313;50.780;6.084;2022-09-29T10:05:20;98154.84;;;17.03;44.75
9189;BME280;34313;50.780;6.084;2022-09-29T10:07:47;98156.34;;;17.14;44.37
9189;BME280;34313;50.780;6.084;2022-09-29T10:10:20;98151.53;;;17.50;43.30
9189;BME280;34313;50.780;6.084;2022-09-29T10:12:57;98158.31;;;18.19;42.59
9189;BME280;34313;50.780;6.084;2022-09-29T10:18:04;98153.59;;;19.31;38.36
9189;BME280;34313;50.780;6.084;2022-09-29T10:20:34;98157.03;;;20.01;37.04
9189;BME280;34313;50.780;6.084;2022-09-29T10:23:35;98152.16;;;20.19;36.27
9189;BME280;34313;50.780;6.084;2022-09-29T10:26:11;98158.53;;;20.48;35.50
9189;BME280;34313;50.780;6.084;2022-09-29T10:28:57;98153.88;;;20.87;34.11
9189;BME280;34313;50.780;6.084;2022-09-29T10:33:54;98164.88;;;20.47;34.37
9189;BME280;34313;50.780;6.084;2022-09-29T10:36:21;98170.16;;;20.26;34.78
9189;BME280;34313;50.780;6.084;2022-09-29T10:38:50;98179.47;;;19.77;35.06
9189;BME280;34313;50.780;6.084;2022-09-29T10:41:15;98180.09;;;19.41;36.47
9189;BME280;34313;50.780;6.084;2022-09-29T10:43:42;98178.25;;;19.18;37.01
9189;BME280;34313;50.780;6.084;2022-09-29T10:49:17;98176.41;;;18.79;36.79
9189;BME280;34313;50.780;6.084;2022-09-29T10:54:17;98179.47;;;18.68;36.33
9189;BME280;34313;50.780;6.084;2022-09-29T10:56:47;98179.47;;;18.68;36.67
9189;BME280;34313;50.780;6.084;2022-09-29T10:59:14;98181.63;;;18.73;36.18
9189;BME280;34313;50.780;6.084;2022-09-29T11:01:49;98175.41;;;18.80;36.95
9189;BME280;34313;50.780;6.084;2022-09-29T11:04:23;98180.59;;;18.74;36.89
9189;BME280;34313;50.780;6.084;2022-09-29T11:06:50;98191.91;;;18.44;39.10
9189;BME280;34313;50.780;6.084;2022-09-29T11:14:29;98187.09;;;16.92;43.55
9189;BME280;34313;50.780;6.084;2022-09-29T11:17:00;98194.25;;;16.65;44.00
9189;BME280;34313;50.780;6.084;2022-09-29T11:19:28;98186.53;;;16.45;44.82
9189;BME280;34313;50.780;6.084;2022-09-29T11:44:32;98201.69;;;19.00;40.45
9189;BME280;34313;50.780;6.084;2022-09-29T11:47:09;98196.13;;;19.41;39.19
9189;BME280;34313;50.780;6.084;2022-09-29T11:57:51;98191.28;;;18.34;39.73
9189;BME280;34313;50.780;6.084;2022-09-29T12:00:21;98205.94;;;18.38;40.13
9189;BME280;34313;50.780;6.084;2022-09-29T12:05:31;98211.31;;;18.13;39.03
9189;BME280;34313;50.780;6.084;2022-09-29T12:08:34;98202.44;;;18.38;38.34
9189;BME280;34313;50.780;6.084;2022-09-29T12:11:07;98188.44;;;18.36;38.04
9189;BME280;34313;50.780;6.084;2022-09-29T12:13:57;98203.44;;;18.28;37.92
9189;BME280;34313;50.780;6.084;2022-09-29T12:16:32;98204.47;;;17.45;38.78
9189;BME280;34313;50.780;6.084;2022-09-29T12:19:12;98204.31;;;17.30;39.95
9189;BME280;34313;50.780;6.084;2022-09-29T12:21:46;98205.91;;;17.07;40.58
9189;BME280;34313;50.780;6.084;2022-09-29T12:24:19;98191.69;;;16.81;40.62
9189;BME280;34313;50.780;6.084;2022-09-29T12:26:48;98205.53;;;16.93;42.19
9189;BME280;34313;50.780;6.084;2022-09-29T12:29:30;98208.84;;;16.87;42.88
9189;BME280;34313;50.780;6.084;2022-09-29T12:32:03;98202.63;;;16.78;43.97
9189;BME280;34313;50.780;6.084;2022-09-29T12:34:52;98201.53;;;16.55;44.23
9189;BME280;34313;50.780;6.084;2022-09-29T12:37:26;98209.91;;;16.34;44.13
9189;BME280;34313;50.780;6.084;2022-09-29T12:45:36;98217.94;;;15.90;46.15
9189;BME280;34313;50.780;6.084;2022-09-29T12:48:22;98220.31;;;15.75;46.54
9189;BME280;34313;50.780;6.084;2022-09-29T12:50:58;98214.38;;;15.63;47.40
9189;BME280;34313;50.780;6.084;2022-09-29T12:56:04;98213.78;;;15.33;48.88
9189;BME280;34313;50.780;6.084;2022-09-29T12:58:45;98215.13;;;15.19;48.80
9189;BME280;34313;50.780;6.084;2022-09-29T13:01:21;98200.66;;;15.13;49.01
9189;BME280;34313;50.780;6.084;2022-09-29T13:06:38;98216.72;;;15.30;48.58
9189;BME280;34313;50.780;6.084;2022-09-29T13:28:35;98221.25;;;15.20;46.43
9189;BME280;34313;50.780;6.084;2022-09-29T13:31:10;98226.66;;;15.28;46.16
9189;BME280;34313;50.780;6.084;2022-09-29T13:33:38;98224.25;;;15.53;45.94
9189;BME280;34313;50.780;6.084;2022-09-29T13:36:04;98230.69;;;15.68;45.91
9189;BME280;34313;50.780;6.084;2022-09-29T13:38:33;98225.47;;;15.76;46.18
9189;BME280;34313;50.780;6.084;2022-09-29T13:41:16;98229.03;;;15.85;45.55
9189;BME280;34313;50.780;6.084;2022-09-29T13:59:36;98232.72;;;17.13;43.00
9189;BME280;34313;50.780;6.084;2022-09-29T14:02:38;98238.22;;;17.20;42.79
9189;BME280;34313;50.780;6.084;2022-09-29T14:13:06;98248.78;;;16.87;42.33
9189;BME280;34313;50.780;6.084;2022-09-29T14:15:40;98253.00;;;16.45;43.39
9189;BME280;34313;50.780;6.084;2022-09-29T14:18:28;98253.28;;;16.34;43.55
9189;BME280;34313;50.780;6.084;2022-09-29T14:21:05;98252.81;;;16.39;43.99
9189;BME280;34313;50.780;6.084;2022-09-29T14:23:47;98267.72;;;16.32;44.47
9189;BME280;34313;50.780;6.084;2022-09-29T14:26:48;98268.34;;;15.99;45.60
9189;BME280;34313;50.780;6.084;2022-09-29T14:29:23;98258.69;;;15.62;47.52
9189;BME280;34313;50.780;6.084;2022-09-29T14:31:54;98265.81;;;15.62;48.38
9189;BME280;34313;50.780;6.084;2022-09-29T14:34:22;98271.47;;;15.13;49.02
9189;BME280;34313;50.780;6.084;2022-09-29T14:36:52;98272.28;;;14.86;50.04
9189;BME280;34313;50.780;6.084;2022-09-29T14:39:19;98261.34;;;14.71;50.56
9189;BME280;34313;50.780;6.084;2022-09-29T14:41:47;98273.13;;;14.39;51.65
9189;BME280;34313;50.780;6.084;2022-09-29T14:44:35;98287.09;;;14.41;52.15
9189;BME280;34313;50.780;6.084;2022-09-29T14:47:53;98286.41;;;14.29;52.61
9189;BME280;34313;50.780;6.084;2022-09-29T14:51:07;98289.06;;;14.19;52.75
9189;BME280;34313;50.780;6.084;2022-09-29T14:54:50;98290.44;;;14.33;52.29
9189;BME280;34313;50.780;6.084;2022-09-29T15:02:29;98301.19;;;14.32;51.99
9189;BME280;34313;50.780;6.084;2022-09-29T15:04:56;98291.44;;;14.32;51.77
9189;BME280;34313;50.780;6.084;2022-09-29T15:07:25;98292.97;;;14.25;51.73
9189;BME280;34313;50.780;6.084;2022-09-29T15:09:56;98299.22;;;14.34;51.66
9189;BME280;34313;50.780;6.084;2022-09-29T15:12:27;98300.63;;;14.28;52.23
9189;BME280;34313;50.780;6.084;2022-09-29T15:14:55;98309.69;;;14.35;52.76
9189;BME280;34313;50.780;6.084;2022-09-29T15:23:07;98309.13;;;14.32;53.43
9189;BME280;34313;50.780;6.084;2022-09-29T15:25:41;98302.19;;;14.21;52.41
9189;BME280;34313;50.780;6.084;2022-09-29T15:28:16;98305.53;;;14.04;53.52
9189;BME280;34313;50.780;6.084;2022-09-29T15:30:43;98300.28;;;13.94;53.23
9189;BME280;34313;50.780;6.084;2022-09-29T15:33:30;98316.72;;;13.78;52.95
9189;BME280;34313;50.780;6.084;2022-09-29T15:35:58;98313.06;;;13.59;53.01
9189;BME280;34313;50.780;6.084;2022-09-29T15:38:28;98315.69;;;13.40;54.27
9189;BME280;34313;50.780;6.084;2022-09-29T15:41:00;98309.34;;;13.21;54.51
9189;BME280;34313;50.780;6.084;2022-09-29T15:46:17;98325.97;;;12.93;55.91
9189;BME280;34313;50.780;6.084;2022-09-29T15:51:30;98327.09;;;12.69;57.03
9189;BME280;34313;50.780;6.084;2022-09-29T15:53:56;98322.16;;;12.55;57.51
9189;BME280;34313;50.780;6.084;2022-09-29T15:56:24;98335.78;;;12.50;57.74
9189;BME280;34313;50.780;6.084;2022-09-29T15:58:49;98341.25;;;12.37;58.42
9189;BME280;34313;50.780;6.084;2022-09-29T16:01:15;98339.84;;;12.33;59.08
9189;BME280;34313;50.780;6.084;2022-09-29T16:03:53;98352.28;;;12.42;59.21
9189;BME280;34313;50.780;6.084;2022-09-29T16:06:32;98345.13;;;12.54;60.23
9189;BME280;34313;50.780;6.084;2022-09-29T16:09:05;98341.56;;;12.44;61.69
9189;BME280;34313;50.780;6.084;2022-09-29T16:11:38;98360.78;;;12.46;63.05
9189;BME280;34313;50.780;6.084;2022-09-29T16:14:19;98356.16;;;12.38;63.44
9189;BME280;34313;50.780;6.084;2022-09-29T16:16:48;98368.53;;;12.38;64.62
9189;BME280;34313;50.780;6.084;2022-09-29T16:19:25;98366.38;;;12.32;64.90